Time;durP1;ratioP1;P1;durP2;ratioP2;P2;SDS_P1;SDS_P2;PMS_P1;PMS_P2;Temp;Humidity;BMP_temperature;BMP_pressure;BME280_temperature;BME280_humidity;BME280_pressure;Samples;Min_cycle;Max_cycle;Signal;HPM_P1;HPM_P2
2023/08/16 00:00:53;;;;;;;5.82;3.88;;;;;;;19.25;81.47;101822.50;5103547;28;20473;-50
2023/08/16 00:03:18;;;;;;;7.22;3.40;;;;;;;19.24;82.24;101818.97;5103696;28;20044;-50
2023/08/16 00:05:43;;;;;;;7.30;3.63;;;;;;;19.23;83.35;101812.75;5103756;28;20104;-50
2023/08/16 00:08:09;;;;;;;7.90;3.55;;;;;;;19.21;83.32;101820.09;5099575;28;20035;-50
2023/08/16 00:10:34;;;;;;;7.05;3.38;;;;;;;19.23;82.71;101830.72;5105250;28;20032;-50
2023/08/16 00:13:00;;;;;;;7.18;3.38;;;;;;;19.20;82.44;101829.19;5099894;28;20115;-50
2023/08/16 00:15:26;;;;;;;7.88;3.33;;;;;;;19.22;82.96;101823.66;5104396;28;20529;-50
2023/08/16 00:17:52;;;;;;;6.65;3.70;;;;;;;19.18;83.04;101824.94;5105569;28;20022;-49
2023/08/16 00:20:20;;;;;;;6.07;3.40;;;;;;;19.13;84.39;101822.69;5102379;28;20028;-50
2023/08/16 00:22:45;;;;;;;5.53;3.47;;;;;;;19.15;84.14;101826.09;5100675;28;20016;-50
2023/08/16 00:25:11;;;;;;;6.82;3.45;;;;;;;19.14;84.32;101823.56;5103628;28;20025;-50
2023/08/16 00:27:36;;;;;;;6.68;3.85;;;;;;;19.07;84.19;101826.00;5102817;27;20024;-50
2023/08/16 00:30:02;;;;;;;5.30;3.78;;;;;;;19.05;85.42;101822.59;5103029;28;20035;-50
2023/08/16 00:32:27;;;;;;;7.93;4.20;;;;;;;19.05;86.00;101819.91;5106748;28;20473;-50
2023/08/16 00:34:53;;;;;;;5.65;4.00;;;;;;;19.06;86.87;101826.16;5098260;28;20058;-50
2023/08/16 00:37:18;;;;;;;7.07;4.35;;;;;;;19.01;87.50;101822.03;5102011;28;20076;-50
2023/08/16 00:39:43;;;;;;;7.97;4.18;;;;;;;18.97;87.94;101827.91;5099655;28;20505;-50
2023/08/16 00:42:10;;;;;;;5.28;3.83;;;;;;;18.94;88.13;101831.72;5101298;28;20416;-50
2023/08/16 00:44:35;;;;;;;6.38;3.83;;;;;;;18.93;88.75;101831.88;5100730;28;20094;-50
2023/08/16 00:47:01;;;;;;;9.15;4.13;;;;;;;18.90;88.41;101834.84;5101772;28;20047;-50
2023/08/16 00:49:27;;;;;;;5.32;4.50;;;;;;;18.84;88.75;101839.00;5104116;28;20032;-50
2023/08/16 00:51:53;;;;;;;7.10;5.00;;;;;;;18.79;88.64;101841.25;5101423;28;20504;-51
2023/08/16 00:54:18;;;;;;;5.70;4.38;;;;;;;18.79;89.39;101843.94;5103342;28;20094;-51
2023/08/16 00:56:44;;;;;;;5.93;4.47;;;;;;;18.72;89.31;101850.88;5098979;28;20457;-50
2023/08/16 00:59:10;;;;;;;9.52;4.72;;;;;;;18.63;89.80;101847.25;5103046;28;20068;-50
2023/08/16 01:01:36;;;;;;;6.72;4.82;;;;;;;18.58;89.63;101844.97;5095375;28;20024;-50
2023/08/16 01:04:01;;;;;;;5.95;4.38;;;;;;;18.60;90.08;101843.03;5103221;27;20016;-50
2023/08/16 01:06:26;;;;;;;6.60;4.50;;;;;;;18.63;90.60;101855.31;5102691;28;20107;-49
2023/08/16 01:08:52;;;;;;;8.73;4.35;;;;;;;18.52;91.46;101859.03;5102203;28;20024;-51
2023/08/16 01:11:38;;;;;;;7.40;4.80;;;;;;;18.56;91.67;101855.03;5097000;28;20032;-50
2023/08/16 01:14:15;;;;;;;9.52;4.47;;;;;;;18.50;91.55;101847.53;5101744;28;20024;-50
2023/08/16 01:16:42;;;;;;;4.55;3.80;;;;;;;18.45;92.21;101845.31;5103151;28;20516;-50
2023/08/16 01:19:10;;;;;;;4.88;3.92;;;;;;;18.48;92.34;101854.91;5102590;28;20032;-51
2023/08/16 01:21:53;;;;;;;7.45;4.13;;;;;;;18.47;91.72;101864.00;5104172;28;20050;-50
2023/08/16 01:24:30;;;;;;;8.73;4.10;;;;;;;18.40;92.21;101863.75;5094397;28;20523;-50
2023/08/16 01:26:56;;;;;;;11.15;4.22;;;;;;;18.36;92.30;101865.00;5103287;28;20036;-50
2023/08/16 01:29:23;;;;;;;8.73;4.15;;;;;;;18.35;92.34;101865.97;5099146;27;20111;-50
2023/08/16 01:31:48;;;;;;;7.00;4.13;;;;;;;18.30;92.94;101866.44;5102691;27;20047;-50
2023/08/16 01:34:14;;;;;;;4.95;4.10;;;;;;;18.29;92.55;101871.94;5099383;28;20025;-50
2023/08/16 01:36:39;;;;;;;5.95;4.18;;;;;;;18.29;92.76;101871.94;5101307;28;20031;-50
2023/08/16 01:39:05;;;;;;;6.20;4.10;;;;;;;18.25;92.84;101879.47;5101169;28;20042;-50
2023/08/16 01:41:33;;;;;;;7.53;4.47;;;;;;;18.22;93.28;101881.56;5101929;28;20082;-50
2023/08/16 01:43:59;;;;;;;7.13;3.93;;;;;;;18.22;92.57;101874.38;5101213;28;20406;-49
2023/08/16 01:46:25;;;;;;;7.72;4.45;;;;;;;18.20;92.49;101870.97;5099467;27;20028;-50
2023/08/16 01:48:53;;;;;;;5.38;4.18;;;;;;;18.23;92.52;101867.97;5101342;28;20077;-50
2023/08/16 01:51:19;;;;;;;7.85;4.35;;;;;;;18.21;93.22;101869.97;5101423;28;20028;-50
2023/08/16 01:53:51;;;;;;;6.07;4.13;;;;;;;18.23;92.90;101869.81;5101323;28;20411;-50
2023/08/16 01:56:16;;;;;;;9.93;4.70;;;;;;;18.15;93.36;101873.22;5100048;28;20035;-50
2023/08/16 01:58:42;;;;;;;9.70;4.18;;;;;;;18.16;93.54;101879.47;5100388;28;20031;-50
2023/08/16 02:01:07;;;;;;;7.47;4.35;;;;;;;18.12;94.01;101881.59;5099124;28;20020;-49
2023/08/16 02:03:33;;;;;;;8.03;4.10;;;;;;;18.15;93.91;101875.06;5097786;28;20474;-50
2023/08/16 02:05:58;;;;;;;6.10;4.32;;;;;;;18.16;94.26;101874.09;5099535;28;20404;-50
2023/08/16 02:08:23;;;;;;;4.55;4.10;;;;;;;18.13;94.24;101869.81;5098083;28;20032;-49
2023/08/16 02:10:49;;;;;;;7.60;4.85;;;;;;;18.09;94.36;101868.44;5094240;28;20047;-50
2023/08/16 02:13:14;;;;;;;8.00;4.90;;;;;;;18.04;93.60;101879.59;5103550;28;20020;-50
2023/08/16 02:15:39;;;;;;;8.82;5.10;;;;;;;18.02;93.23;101883.41;5098000;28;20544;-50
2023/08/16 02:18:10;;;;;;;7.70;4.60;;;;;;;17.97;93.47;101878.47;5104051;28;20022;-50
2023/08/16 02:20:37;;;;;;;7.82;5.10;;;;;;;17.93;93.14;101877.88;5102698;28;20281;-50
2023/08/16 02:23:02;;;;;;;8.15;4.65;;;;;;;17.93;93.84;101877.03;5102599;28;20020;-50
2023/08/16 02:25:28;;;;;;;9.57;5.00;;;;;;;17.92;94.17;101886.13;5100079;28;20031;-50
2023/08/16 02:27:53;;;;;;;7.50;4.95;;;;;;;17.90;94.24;101878.19;5098205;28;20351;-50
2023/08/16 02:30:18;;;;;;;8.70;5.30;;;;;;;17.88;94.84;101882.81;5102242;28;20032;-50
2023/08/16 02:32:44;;;;;;;10.15;5.45;;;;;;;17.92;94.35;101881.56;5096294;28;20035;-50
2023/08/16 02:35:09;;;;;;;7.95;5.07;;;;;;;17.89;94.33;101881.84;5100196;28;20027;-50
2023/08/16 02:37:34;;;;;;;7.93;5.60;;;;;;;17.88;94.85;101879.31;5094635;28;20061;-50
2023/08/16 02:40:00;;;;;;;10.18;5.05;;;;;;;17.90;95.67;101886.25;5102396;28;20107;-49
2023/08/16 02:42:25;;;;;;;8.73;5.38;;;;;;;17.86;95.63;101878.56;5100337;28;20469;-51
2023/08/16 02:44:50;;;;;;;7.53;5.10;;;;;;;17.88;95.19;101861.31;5101523;28;20497;-51
2023/08/16 02:47:16;;;;;;;9.30;5.30;;;;;;;17.90;94.56;101867.44;5101229;28;20030;-50
2023/08/16 02:49:41;;;;;;;11.75;5.30;;;;;;;17.91;94.68;101860.22;5100835;28;20493;-51
2023/08/16 02:52:06;;;;;;;8.00;4.90;;;;;;;17.87;94.85;101862.34;5100733;28;20027;-50
2023/08/16 02:54:31;;;;;;;10.48;5.30;;;;;;;17.81;94.75;101862.84;5098493;28;20051;-50
2023/08/16 02:56:57;;;;;;;9.90;5.85;;;;;;;17.73;95.07;101868.91;5096758;28;20107;-52
2023/08/16 02:59:22;;;;;;;6.18;5.55;;;;;;;17.71;95.12;101870.06;5101530;28;20023;-50
2023/08/16 03:01:48;;;;;;;8.10;6.00;;;;;;;17.69;95.45;101872.06;5100840;28;20534;-53
2023/08/16 03:04:13;;;;;;;7.07;5.70;;;;;;;17.68;95.55;101860.44;5104145;28;20027;-53
2023/08/16 03:06:38;;;;;;;11.70;5.90;;;;;;;17.71;95.77;101875.44;5106615;28;20077;-53
2023/08/16 03:09:04;;;;;;;10.38;6.18;;;;;;;17.66;95.99;101869.63;5108791;27;20113;-53
2023/08/16 03:11:29;;;;;;;9.98;6.07;;;;;;;17.69;95.38;101864.81;5102395;27;20031;-52
2023/08/16 03:13:55;;;;;;;9.55;6.28;;;;;;;17.71;95.19;101867.38;5105798;28;20118;-53
2023/08/16 03:16:20;;;;;;;10.93;5.90;;;;;;;17.66;95.74;101869.63;5110325;28;20095;-51
2023/08/16 03:18:45;;;;;;;9.85;6.55;;;;;;;17.66;95.39;101873.16;5107117;28;20023;-50
2023/08/16 03:21:10;;;;;;;11.52;6.22;;;;;;;17.65;95.60;101876.84;5111184;28;20024;-51
2023/08/16 03:23:36;;;;;;;6.38;5.53;;;;;;;17.69;95.44;101866.69;5104579;28;20025;-50
2023/08/16 03:26:01;;;;;;;8.50;6.63;;;;;;;17.66;95.46;101872.31;5110128;28;20028;-50
2023/08/16 03:28:26;;;;;;;13.27;7.40;;;;;;;17.64;95.47;101867.09;5107731;28;20489;-50
2023/08/16 03:30:52;;;;;;;10.70;7.20;;;;;;;17.67;95.07;101869.50;5109953;28;20695;-52
2023/08/16 03:33:17;;;;;;;9.93;7.25;;;;;;;17.69;95.25;101872.06;5108111;28;20470;-50
2023/08/16 03:35:42;;;;;;;12.55;7.03;;;;;;;17.67;95.40;101869.50;5109645;28;20077;-50
2023/08/16 03:38:08;;;;;;;11.48;7.47;;;;;;;17.64;95.93;101877.00;5109965;28;20023;-50
2023/08/16 03:40:33;;;;;;;8.63;7.20;;;;;;;17.62;96.20;101879.81;5108661;28;20453;-51
2023/08/16 03:42:58;;;;;;;10.23;7.68;;;;;;;17.59;96.32;101884.63;5106529;28;20027;-51
2023/08/16 03:45:26;;;;;;;11.65;7.60;;;;;;;17.58;96.69;101881.06;5107914;28;20066;-50
2023/08/16 03:47:53;;;;;;;11.98;7.30;;;;;;;17.52;97.29;101876.22;5104351;27;20027;-50
2023/08/16 03:50:19;;;;;;;12.73;8.35;;;;;;;17.52;96.76;101886.97;5105907;28;20020;-50
2023/08/16 03:52:44;;;;;;;11.68;7.72;;;;;;;17.47;95.64;101887.41;5108774;28;20042;-50
2023/08/16 03:55:10;;;;;;;16.83;8.40;;;;;;;17.50;96.23;101886.28;5104761;28;20042;-50
2023/08/16 03:57:36;;;;;;;14.48;8.63;;;;;;;17.44;95.71;101892.22;5105978;27;20756;-50
2023/08/16 04:00:04;;;;;;;11.50;7.90;;;;;;;17.42;96.35;101897.72;5105878;28;20065;-50
2023/08/16 04:02:29;;;;;;;11.50;7.45;;;;;;;17.40;95.78;101899.66;5107512;28;20111;-50
2023/08/16 04:04:55;;;;;;;8.98;7.93;;;;;;;17.38;97.18;101896.28;5104462;28;20051;-50
2023/08/16 04:07:21;;;;;;;11.43;8.45;;;;;;;17.38;97.61;101896.28;5104406;27;20081;-50
2023/08/16 04:09:46;;;;;;;10.13;7.53;;;;;;;17.34;97.40;101892.19;5107418;28;20040;-50
2023/08/16 04:12:12;;;;;;;14.63;9.38;;;;;;;17.34;96.50;101892.19;5109326;28;20020;-50
2023/08/16 04:14:37;;;;;;;12.82;8.48;;;;;;;17.33;96.46;101895.84;5103707;28;20509;-50
2023/08/16 04:17:03;;;;;;;11.95;8.13;;;;;;;17.27;96.65;101901.75;5103479;28;20513;-50
2023/08/16 04:19:31;;;;;;;9.70;7.72;;;;;;;17.25;96.12;101909.09;5103233;28;20047;-50
2023/08/16 04:21:56;;;;;;;9.70;7.50;;;;;;;17.20;96.22;101913.03;5101497;28;20575;-51
2023/08/16 04:24:21;;;;;;;10.68;7.72;;;;;;;17.17;96.88;101910.63;5099521;28;20118;-49
2023/08/16 04:26:47;;;;;;;11.63;8.05;;;;;;;17.13;97.73;101909.19;5101418;28;20492;-50
2023/08/16 04:29:12;;;;;;;10.30;8.25;;;;;;;17.12;98.52;101903.94;5102408;28;20023;-50
2023/08/16 04:31:38;;;;;;;13.18;7.88;;;;;;;17.12;98.39;101907.50;5102104;28;20477;-50
2023/08/16 04:34:03;;;;;;;11.65;7.63;;;;;;;17.11;98.42;101910.31;5102688;28;20461;-50
2023/08/16 04:36:28;;;;;;;9.30;7.43;;;;;;;17.11;97.81;101907.63;5102224;28;20107;-50
2023/08/16 04:38:54;;;;;;;11.95;7.95;;;;;;;17.11;98.23;101899.56;5105346;28;20282;-50
2023/08/16 04:41:19;;;;;;;10.00;7.80;;;;;;;17.06;98.18;101899.13;5101384;28;20473;-50
2023/08/16 04:43:44;;;;;;;11.52;7.90;;;;;;;17.10;97.58;101898.75;5101668;28;20024;-50
2023/08/16 04:46:09;;;;;;;11.18;7.63;;;;;;;17.11;97.14;101902.25;5097684;28;20511;-50
2023/08/16 04:48:35;;;;;;;14.27;8.73;;;;;;;17.13;97.76;101900.28;5101650;28;20036;-50
2023/08/16 04:51:00;;;;;;;11.87;8.37;;;;;;;17.10;97.85;101903.22;5102135;28;20024;-50
2023/08/16 04:53:26;;;;;;;11.55;8.10;;;;;;;17.08;98.29;101911.41;5101537;28;20377;-49
2023/08/16 04:55:51;;;;;;;8.95;7.68;;;;;;;17.06;98.60;101908.03;5102085;28;20470;-50
2023/08/16 04:58:17;;;;;;;10.60;7.47;;;;;;;17.04;98.20;101910.00;5099655;27;20024;-50
2023/08/16 05:00:42;;;;;;;10.40;8.05;;;;;;;17.00;99.02;101911.22;5102173;28;20028;-50
2023/08/16 05:03:07;;;;;;;11.75;8.07;;;;;;;17.04;99.08;101918.06;5096707;28;20545;-50
2023/08/16 05:05:33;;;;;;;12.20;7.63;;;;;;;17.02;98.38;101912.81;5101694;28;20032;-50
2023/08/16 05:07:58;;;;;;;11.65;7.57;;;;;;;17.01;98.09;101918.31;5095408;28;20024;-50
2023/08/16 05:10:23;;;;;;;11.98;7.70;;;;;;;16.99;98.25;101914.94;5101171;28;20086;-50
2023/08/16 05:12:49;;;;;;;12.05;8.57;;;;;;;16.97;98.56;101916.88;5105857;28;20077;-49
2023/08/16 05:15:14;;;;;;;11.57;8.20;;;;;;;16.98;98.05;101919.41;5105185;28;20032;-51
2023/08/16 05:17:40;;;;;;;10.20;7.97;;;;;;;16.98;98.05;101915.91;5099923;28;20016;-50
2023/08/16 05:20:06;;;;;;;11.10;8.00;;;;;;;16.94;98.21;101930.56;5102142;28;20047;-49
2023/08/16 05:22:32;;;;;;;9.90;8.13;;;;;;;16.93;97.74;101937.75;5096672;28;20539;-50
2023/08/16 05:24:57;;;;;;;14.85;8.75;;;;;;;16.94;98.14;101941.31;5101000;28;20040;-50
2023/08/16 05:27:22;;;;;;;11.55;8.43;;;;;;;16.94;98.38;101935.94;5106528;28;20054;-50
2023/08/16 05:29:48;;;;;;;12.75;8.32;;;;;;;16.93;98.20;101932.38;5099776;28;20384;-50
2023/08/16 05:32:13;;;;;;;11.55;8.40;;;;;;;16.94;98.18;101942.16;5098858;28;20432;-51
2023/08/16 05:34:38;;;;;;;9.18;7.75;;;;;;;16.95;98.19;101943.88;5098685;28;20419;-49
2023/08/16 05:37:05;;;;;;;9.40;7.78;;;;;;;16.95;98.29;101943.00;5096585;28;20107;-50
2023/08/16 05:39:31;;;;;;;11.88;7.68;;;;;;;16.96;97.93;101940.19;5100646;28;20038;-51
2023/08/16 05:41:56;;;;;;;9.07;7.80;;;;;;;16.97;97.90;101938.34;5100937;28;20028;-51
2023/08/16 05:44:22;;;;;;;12.43;7.90;;;;;;;16.98;97.97;101940.03;5101136;28;20047;-51
2023/08/16 05:46:47;;;;;;;8.75;7.72;;;;;;;16.94;99.02;101942.16;5100793;28;20028;-51
2023/08/16 05:49:12;;;;;;;9.27;6.75;;;;;;;16.99;98.06;101950.66;5102213;28;20036;-50
2023/08/16 05:51:38;;;;;;;8.35;7.40;;;;;;;17.00;99.09;101948.81;5102462;28;20035;-49
2023/08/16 05:54:03;;;;;;;10.70;7.53;;;;;;;17.00;98.73;101955.06;5101554;28;20043;-50
2023/08/16 05:56:29;;;;;;;12.93;7.30;;;;;;;17.03;98.89;101959.28;5097849;28;20416;-50
2023/08/16 05:58:54;;;;;;;8.52;7.53;;;;;;;17.07;99.13;101967.91;5103577;28;20027;-50
2023/08/16 06:01:19;;;;;;;11.35;7.47;;;;;;;17.06;98.83;101961.72;5097426;28;20154;-50
2023/08/16 06:03:45;;;;;;;9.05;7.30;;;;;;;17.09;98.84;101968.66;5096683;28;20073;-50
2023/08/16 06:06:10;;;;;;;8.70;7.15;;;;;;;17.11;98.38;101964.84;5098797;28;20016;-50
2023/08/16 06:08:35;;;;;;;8.88;7.22;;;;;;;17.15;98.29;101960.06;5094932;28;20064;-50
2023/08/16 06:11:01;;;;;;;9.60;7.85;;;;;;;17.14;98.82;101959.22;5088091;28;20023;-50
2023/08/16 06:13:27;;;;;;;9.75;6.88;;;;;;;17.18;98.25;101952.56;5085800;28;20348;-50
2023/08/16 06:15:52;;;;;;;10.18;7.10;;;;;;;17.20;98.75;101950.63;5099917;28;20024;-50
2023/08/16 06:18:17;;;;;;;10.13;7.13;;;;;;;17.28;97.94;101949.09;5096725;28;20122;-50
2023/08/16 06:20:43;;;;;;;9.48;6.68;;;;;;;17.30;99.26;101952.50;5093761;28;20422;-50
2023/08/16 06:23:09;;;;;;;10.30;6.18;;;;;;;17.33;97.82;101952.22;5095128;28;20463;-50
2023/08/16 06:25:34;;;;;;;7.63;6.82;;;;;;;17.40;97.14;101950.69;5099932;28;20039;-50
2023/08/16 06:27:59;;;;;;;11.32;6.82;;;;;;;17.43;96.91;101944.22;5096919;28;20023;-50
2023/08/16 06:30:25;;;;;;;9.70;6.90;;;;;;;17.52;96.83;101957.69;5100580;28;20034;-50
2023/08/16 06:32:50;;;;;;;7.90;6.57;;;;;;;17.63;95.78;101954.03;5095536;28;20035;-51
2023/08/16 06:35:15;;;;;;;9.57;6.80;;;;;;;17.76;97.19;101960.00;5095171;28;20029;-50
2023/08/16 06:37:41;;;;;;;10.02;7.22;;;;;;;17.86;96.81;101964.56;5095536;28;20028;-50
2023/08/16 06:40:07;;;;;;;11.70;6.53;;;;;;;17.96;96.06;101961.94;5102966;28;20028;-50
2023/08/16 06:42:32;;;;;;;10.32;6.80;;;;;;;18.03;94.54;101957.69;5094789;28;20012;-51
2023/08/16 06:44:58;;;;;;;10.23;7.03;;;;;;;18.12;94.21;101952.34;5097385;28;20079;-50
2023/08/16 06:47:23;;;;;;;9.88;6.45;;;;;;;18.20;94.28;101954.34;5100221;28;20512;-50
2023/08/16 06:49:48;;;;;;;11.35;6.50;;;;;;;18.27;93.75;101952.78;5094801;28;20016;-50
2023/08/16 06:52:14;;;;;;;9.77;6.35;;;;;;;18.33;92.27;101950.50;5099727;28;20031;-51
2023/08/16 06:54:42;;;;;;;7.63;5.43;;;;;;;18.44;92.12;101963.81;5095902;28;20362;-50
2023/08/16 06:57:08;;;;;;;11.57;6.00;;;;;;;18.56;90.46;101967.22;5098645;28;20474;-50
2023/08/16 06:59:33;;;;;;;8.13;5.50;;;;;;;18.58;88.07;101976.81;5096811;28;20017;-50
2023/08/16 07:01:59;;;;;;;7.90;5.55;;;;;;;18.68;89.46;101971.44;5097791;28;20039;-50
2023/08/16 07:04:24;;;;;;;7.60;5.20;;;;;;;18.82;88.24;101984.47;5094841;28;20044;-50
2023/08/16 07:06:50;;;;;;;8.32;5.53;;;;;;;18.88;88.29;101974.13;5099661;28;20533;-50
2023/08/16 07:09:15;;;;;;;7.65;5.47;;;;;;;18.93;86.96;101982.63;5099057;28;20465;-50
2023/08/16 07:11:40;;;;;;;7.35;5.40;;;;;;;18.99;86.21;101974.81;5092734;28;20166;-50
2023/08/16 07:14:06;;;;;;;11.13;5.10;;;;;;;19.08;86.68;101973.09;5094842;28;20020;-50
2023/08/16 07:16:32;;;;;;;7.68;4.97;;;;;;;19.20;85.07;101965.69;5098990;28;20281;-50
2023/08/16 07:18:57;;;;;;;7.78;4.90;;;;;;;19.49;85.84;101957.50;5094433;28;20055;-50
2023/08/16 07:21:23;;;;;;;6.90;5.57;;;;;;;19.64;84.67;101965.09;5098289;28;20505;-50
2023/08/16 07:23:49;;;;;;;7.30;5.05;;;;;;;19.77;82.56;101968.31;5089385;28;20033;-50
2023/08/16 07:26:14;;;;;;;7.70;4.45;;;;;;;19.94;81.48;101978.28;5091544;28;20028;-50
2023/08/16 07:28:39;;;;;;;7.95;4.80;;;;;;;20.10;80.58;101982.13;5094465;28;20031;-50
2023/08/16 07:31:05;;;;;;;8.57;4.50;;;;;;;20.16;80.21;101986.94;5094553;28;20073;-50
2023/08/16 07:33:30;;;;;;;10.10;5.45;;;;;;;20.32;79.89;101986.25;5098706;28;20026;-50
2023/08/16 07:36:01;;;;;;;5.47;4.35;;;;;;;20.54;78.13;101981.41;5096572;28;20028;-50
2023/08/16 07:38:27;;;;;;;8.07;4.93;;;;;;;20.78;78.43;101986.16;5091085;28;20028;-53
2023/08/16 07:40:53;;;;;;;10.40;4.15;;;;;;;21.03;77.66;101982.66;5095864;28;20034;-50
2023/08/16 07:43:19;;;;;;;6.63;4.70;;;;;;;21.31;75.39;101984.31;5099584;28;20028;-51
2023/08/16 07:45:45;;;;;;;6.32;4.00;;;;;;;21.54;75.04;101982.78;5097175;28;20377;-53
2023/08/16 07:48:10;;;;;;;5.50;3.83;;;;;;;21.88;73.27;101990.00;5099994;28;20024;-51
2023/08/16 07:50:36;;;;;;;9.70;3.83;;;;;;;22.12;72.96;101988.38;5099394;28;20024;-52
2023/08/16 07:53:02;;;;;;;5.00;3.28;;;;;;;22.25;71.12;101996.00;5102183;28;20028;-51
2023/08/16 07:55:31;;;;;;;6.22;3.78;;;;;;;22.29;71.74;101987.41;5099298;28;20022;-50
2023/08/16 07:57:57;;;;;;;7.95;3.80;;;;;;;22.48;71.68;101988.09;5092062;28;20366;-50
2023/08/16 08:00:23;;;;;;;4.45;3.22;;;;;;;22.67;72.08;101985.06;5103233;28;20022;-50
2023/08/16 08:02:48;;;;;;;8.65;3.58;;;;;;;22.78;70.16;101986.56;5099848;27;20023;-50
2023/08/16 08:05:15;;;;;;;6.28;3.53;;;;;;;22.96;68.83;101990.97;5097106;28;20110;-51
2023/08/16 08:07:40;;;;;;;6.78;2.97;;;;;;;23.01;66.36;101996.72;5103025;28;20031;-50
2023/08/16 08:10:06;;;;;;;5.00;3.30;;;;;;;23.23;66.70;102000.59;5098751;28;20070;-50
2023/08/16 08:12:32;;;;;;;10.77;2.92;;;;;;;23.41;65.89;102001.22;5101830;28;20081;-50
2023/08/16 08:14:58;;;;;;;5.05;2.25;;;;;;;23.55;65.42;102004.22;5099907;28;20031;-50
2023/08/16 08:17:23;;;;;;;4.28;2.38;;;;;;;23.53;62.66;102007.13;5098411;28;20255;-51
2023/08/16 08:19:49;;;;;;;6.00;1.90;;;;;;;23.56;61.29;102011.34;5102891;28;20031;-50
2023/08/16 08:22:14;;;;;;;7.25;2.20;;;;;;;23.76;60.07;102006.34;5100865;28;20047;-50
2023/08/16 08:24:39;;;;;;;5.30;2.10;;;;;;;23.77;60.45;102006.19;5102625;28;20059;-51
2023/08/16 08:27:05;;;;;;;9.90;2.27;;;;;;;24.00;60.28;102000.84;5098733;28;20103;-50
2023/08/16 08:29:30;;;;;;;5.07;2.10;;;;;;;24.19;60.13;101998.69;5101925;28;20281;-51
2023/08/16 08:31:56;;;;;;;4.22;2.20;;;;;;;24.34;60.03;102001.47;5098610;28;20020;-50
2023/08/16 08:34:22;;;;;;;4.10;2.03;;;;;;;24.54;58.23;102001.81;5102686;28;20023;-50
2023/08/16 08:36:47;;;;;;;10.82;2.30;;;;;;;24.63;58.01;102010.78;5095436;28;20493;-49
2023/08/16 08:39:15;;;;;;;5.35;1.92;;;;;;;24.61;58.32;102010.13;5101321;28;20023;-52
2023/08/16 08:41:41;;;;;;;5.50;1.95;;;;;;;24.56;59.32;102013.38;5059751;28;20051;-50
2023/08/16 08:44:07;;;;;;;4.45;2.00;;;;;;;24.62;57.80;102007.22;5100143;28;20437;-50
2023/08/16 08:46:33;;;;;;;5.55;2.25;;;;;;;24.52;58.77;102007.44;5100582;28;20035;-51
2023/08/16 08:49:00;;;;;;;7.05;2.13;;;;;;;24.55;57.84;102017.13;5098019;28;20331;-50
2023/08/16 08:51:30;;;;;;;2.38;1.88;;;;;;;24.50;57.55;102012.22;5100334;28;20016;-50
2023/08/16 08:53:56;;;;;;;6.68;1.70;;;;;;;24.50;57.14;102011.38;5092036;28;20562;-50
2023/08/16 08:56:22;;;;;;;4.13;1.90;;;;;;;24.32;57.29;102020.66;5099455;28;20019;-50
2023/08/16 08:58:49;;;;;;;5.65;2.22;;;;;;;24.30;57.79;102019.16;5092859;28;20383;-51
2023/08/16 09:01:15;;;;;;;5.03;1.90;;;;;;;24.22;61.58;102014.63;5096007;28;20024;-50
2023/08/16 09:03:44;;;;;;;5.10;1.90;;;;;;;24.32;60.61;102022.53;5094919;28;20530;-50
2023/08/16 09:06:11;;;;;;;6.43;2.00;;;;;;;24.29;58.65;102014.75;5096839;28;20039;-50
2023/08/16 09:08:37;;;;;;;5.22;1.90;;;;;;;24.37;58.05;102020.13;5101654;28;20359;-50
2023/08/16 09:11:03;;;;;;;3.65;1.85;;;;;;;24.22;57.06;102011.06;5098677;28;20055;-51
2023/08/16 09:13:28;;;;;;;4.15;1.80;;;;;;;24.26;58.67;102021.38;5102942;28;20028;-52
2023/08/16 09:15:53;;;;;;;7.30;1.98;;;;;;;24.51;57.50;102019.31;5095584;28;20036;-50
2023/08/16 09:18:20;;;;;;;4.00;1.90;;;;;;;24.59;57.77;102021.16;5097362;28;20080;-50
2023/08/16 09:20:46;;;;;;;2.88;1.85;;;;;;;24.60;56.83;102019.28;5098227;28;20485;-50
2023/08/16 09:23:13;;;;;;;4.95;1.95;;;;;;;24.55;57.43;102020.69;5092999;28;20020;-50
2023/08/16 09:25:39;;;;;;;3.53;2.00;;;;;;;24.54;56.27;102018.97;5093151;28;20463;-50
2023/08/16 09:28:08;;;;;;;4.63;2.15;;;;;;;24.39;56.53;102018.91;5095768;28;20066;-51
2023/08/16 09:30:34;;;;;;;4.68;2.00;;;;;;;24.37;56.81;102014.69;5093298;28;20032;-50
2023/08/16 09:33:00;;;;;;;3.38;2.00;;;;;;;24.42;57.38;102020.41;5094466;28;20110;-50
2023/08/16 09:35:48;;;;;;;6.43;2.45;;;;;;;24.55;59.46;102020.69;5093865;28;20469;-50
2023/08/16 09:38:14;;;;;;;5.72;2.35;;;;;;;24.55;58.21;102020.69;5096981;28;20114;-50
2023/08/16 09:40:49;;;;;;;8.95;2.40;;;;;;;24.67;57.18;102017.56;5092675;28;20114;-50
2023/08/16 09:43:15;;;;;;;6.45;2.42;;;;;;;24.61;56.92;102016.38;5095804;28;20034;-50
2023/08/16 09:45:41;;;;;;;6.13;2.72;;;;;;;24.52;56.90;102012.88;5097591;27;20052;-51
2023/08/16 09:48:08;;;;;;;7.85;2.90;;;;;;;24.55;57.16;102020.69;5102104;28;20016;-51
2023/08/16 09:50:35;;;;;;;4.90;2.47;;;;;;;24.66;58.74;102010.41;5093934;28;20031;-50
2023/08/16 09:53:03;;;;;;;6.18;3.08;;;;;;;24.65;57.19;102019.63;5098492;28;20114;-51
2023/08/16 09:55:35;;;;;;;5.50;3.10;;;;;;;24.61;57.90;102010.13;5100605;28;20034;-50
2023/08/16 09:58:01;;;;;;;4.75;2.78;;;;;;;24.66;57.54;102018.56;5096023;28;20047;-50
2023/08/16 10:00:28;;;;;;;5.30;2.50;;;;;;;24.72;58.95;102012.41;5095040;28;20031;-50
2023/08/16 10:02:55;;;;;;;6.50;2.45;;;;;;;24.80;58.51;102015.06;5093194;28;20385;-50
2023/08/16 10:05:20;;;;;;;8.63;3.00;;;;;;;24.78;57.83;102013.53;5099350;28;20129;-50
2023/08/16 10:07:50;;;;;;;9.13;3.00;;;;;;;24.74;57.34;102007.63;5094924;28;20485;-50
2023/08/16 10:10:16;;;;;;;5.38;2.70;;;;;;;24.83;58.17;102011.97;5102682;28;20031;-50
2023/08/16 10:12:42;;;;;;;4.35;2.38;;;;;;;24.77;57.98;102003.72;5096016;28;20051;-50
2023/08/16 10:15:09;;;;;;;4.78;2.72;;;;;;;24.68;57.49;102002.91;5095276;28;20025;-50
2023/08/16 10:17:41;;;;;;;7.45;3.40;;;;;;;24.61;57.90;102001.97;5099682;28;20030;-50
2023/08/16 10:20:17;;;;;;;5.53;2.55;;;;;;;24.61;58.27;102005.53;5097825;28;20038;-50
2023/08/16 10:22:43;;;;;;;6.75;2.85;;;;;;;24.55;57.42;102009.81;5093493;28;20570;-50
2023/08/16 10:25:15;;;;;;;6.15;2.30;;;;;;;24.54;61.02;101999.09;5102919;28;20046;-50
2023/08/16 10:27:44;;;;;;;5.68;3.30;;;;;;;24.60;58.42;102011.13;5101543;28;20023;-51
2023/08/16 10:30:19;;;;;;;6.93;3.40;;;;;;;24.60;58.87;102009.28;5098395;28;20028;-50
2023/08/16 10:32:46;;;;;;;6.35;3.60;;;;;;;24.53;58.51;101998.28;5098468;28;20081;-50
2023/08/16 10:35:13;;;;;;;6.35;3.08;;;;;;;24.64;58.87;102004.34;5099971;28;20509;-50
2023/08/16 10:37:38;;;;;;;6.63;2.67;;;;;;;24.71;58.59;101997.13;5099530;28;20504;-52
2023/08/16 10:40:15;;;;;;;4.47;3.08;;;;;;;24.78;58.61;102006.25;5096532;28;20032;-51
2023/08/16 10:42:48;;;;;;;8.30;3.63;;;;;;;24.65;57.84;101995.16;5098145;28;20039;-50
2023/08/16 10:45:21;;;;;;;9.77;3.60;;;;;;;24.78;58.35;101991.81;5097036;28;20490;-50
2023/08/16 10:47:47;;;;;;;5.68;3.60;;;;;;;24.84;58.73;101989.19;5091506;28;20038;-51
2023/08/16 10:50:12;;;;;;;5.50;3.00;;;;;;;24.98;58.24;102003.00;5100302;28;20027;-51
2023/08/16 10:52:38;;;;;;;8.32;3.80;;;;;;;24.89;57.63;101996.81;5083752;28;20791;-51
2023/08/16 10:55:04;;;;;;;5.45;3.15;;;;;;;24.86;57.85;101995.28;5097123;28;20081;-50
2023/08/16 10:57:29;;;;;;;8.85;3.63;;;;;;;24.87;58.43;101996.97;5099493;28;20032;-50
2023/08/16 11:00:05;;;;;;;5.57;3.00;;;;;;;24.98;58.90;101994.84;5098072;28;20028;-50
2023/08/16 11:02:32;;;;;;;9.27;3.80;;;;;;;25.01;57.52;102002.63;5094803;28;20338;-51
2023/08/16 11:04:59;;;;;;;6.10;2.97;;;;;;;25.11;58.12;102003.19;5096393;28;20012;-50
2023/08/16 11:07:24;;;;;;;8.98;3.40;;;;;;;25.13;57.10;101993.00;5092785;28;20051;-51
2023/08/16 11:09:50;;;;;;;4.53;2.90;;;;;;;25.23;57.68;101990.84;5097331;28;20059;-51
2023/08/16 11:12:16;;;;;;;7.22;2.95;;;;;;;25.24;57.09;101999.84;5093493;28;20106;-47
2023/08/16 11:14:44;;;;;;;7.25;3.10;;;;;;;25.23;56.46;102000.84;5102534;28;20032;-50
2023/08/16 11:17:14;;;;;;;5.47;3.05;;;;;;;25.28;57.04;101999.31;5094573;28;20031;-48
2023/08/16 11:19:40;;;;;;;7.35;3.25;;;;;;;25.43;56.60;101998.44;5099086;28;20016;-47